EGNM Airport Information

Runway Information
Runway 14 Length 7382 ft width 150 ft
Elevation 673 ft Threshold 958 ft Heading 138
Runway 32 Length 7382 ft Width 150 ft
Elevation 662 ft Threshold 962 ft Heading 318
Airport Frequencies
Type APP Name APP Frequency 123.75 MHZ
Type ATIS Name ATIS Frequency 118.025 MHZ
Type ILS Rw 32/ Name Frequency 110.9 MHZ
Type TWR Name TWR Frequency 120.3 MHZ
Airport Navaids
Type NDB Name Leeds Bradford Frequency 403 KHZ
Airport Weather Information & NOTAM
ADDS - METARS form results

(1928 UTC 22 September 2018)
Data provider http://aviationweather.gov/metar/data/
 
METAR text: EGNM 221920Z 27005KT CAVOK 08/05 Q1015
Conditions at: EGNM (LEEDS AND BRADFO, GB) observed 1920 UTC 22 September 2018
Temperature: 8.0°C (46°F)
Dewpoint: 5.0°C (41°F) [RH = 81%]
Pressure (altimeter): 29.97 inches Hg (1015.0 mb)
Winds: from the W (270 degrees) at 6 MPH (5 knots; 2.6 m/s)
Visibility: 6 or more miles (10+ km)
Ceiling: ceiling and visibility are OK
Clouds: unknown
Weather: no significant weather observed at this time

METAR text: EGNM 221850Z 25003KT 9999 FEW016 09/05 Q1015
Conditions at: EGNM (LEEDS AND BRADFO, GB) observed 1850 UTC 22 September 2018
Temperature: 9.0°C (48°F)
Dewpoint: 5.0°C (41°F) [RH = 76%]
Pressure (altimeter): 29.97 inches Hg (1015.0 mb)
Winds: from the WSW (250 degrees) at 3 MPH (3 knots; 1.5 m/s)
Visibility: 6 or more miles (10+ km)
Ceiling: at least 12,000 feet AGL
Clouds: few clouds at 1600 feet AGL
Weather: no significant weather observed at this time

Forecast for: EGNM (LEEDS AND BRADFO, GB)
Text: TAF EGNM 221656Z 2218/2318 26007KT 9999 SCT035
Forecast period: 1800 UTC 22 September 2018 to 0700 UTC 23 September 2018
Forecast type: FROM: standard forecast or significant change
Winds: from the W (260 degrees) at 8 MPH (7 knots; 3.6 m/s)
Visibility: 6 or more miles 10+ km)
Ceiling: at least 12,000 feet AGL
Clouds: scattered clouds at 3500 feet AGL
Weather: no significant weather forecast for this period
Text: BECMG 2307/2310 32010KT
Forecast period: 0700 to 1800 UTC 23 September 2018
Forecast type: BECOMING: Conditions expected to become as follows by 1000 UTC 23 September 2018
Winds: from the NW (320 degrees) at 12 MPH (10 knots; 5.1 m/s)
Visibility: 6 or more miles 10+ km)
Ceiling: at least 12,000 feet AGL
Clouds: scattered clouds at 3500 feet AGL
Weather: no significant weather forecast for this period
Text: PROB40
Forecast period: 1200 to 1700 UTC 23 September 2018
Forecast type: TEMPORARY: The following changes expected for less than half the time period
Winds: from the NNW (330 degrees) at 17 MPH (15 knots; 7.7 m/s)
gusting to 29 MPH (25 knots; 12.9 m/s)
Visibility: missing
Ceiling: unknown
Clouds: missing
Weather: no significant weather forecast for this period